Time;durP1;ratioP1;P1;durP2;ratioP2;P2;SDS_P1;SDS_P2;PMS_P1;PMS_P2;Temp;Humidity;BMP_temperature;BMP_pressure;BME280_temperature;BME280_humidity;BME280_pressure;Samples;Min_cycle;Max_cycle;Signal;HPM_P1;HPM_P2
2021/05/19 00:01:17;;;;;;;5.00;3.00;;;;;;;10.81;72.40;96624.81;5093430;28;20182;-68
2021/05/19 00:03:43;;;;;;;3.27;2.73;;;;;;;10.85;72.17;96617.41;5093251;28;20182;-68
2021/05/19 00:06:08;;;;;;;6.40;2.60;;;;;;;10.83;72.45;96625.47;5094497;28;20534;-68
2021/05/19 00:08:34;;;;;;;3.43;3.13;;;;;;;10.67;72.54;96628.09;5086530;28;20262;-67
2021/05/19 00:10:59;;;;;;;2.63;2.30;;;;;;;10.88;71.61;96631.00;5089422;28;20247;-68
2021/05/19 00:13:30;;;;;;;6.23;3.13;;;;;;;10.86;72.03;96622.47;5094496;28;20183;-67
2021/05/19 00:15:55;;;;;;;3.43;3.10;;;;;;;10.75;72.10;96625.47;5094152;28;20205;-66
2021/05/19 00:18:21;;;;;;;3.73;3.10;;;;;;;10.89;72.04;96627.38;5093352;28;20416;-69
2021/05/19 00:20:47;;;;;;;3.37;3.10;;;;;;;11.05;71.55;96625.72;5094022;28;20209;-69
2021/05/19 00:23:12;;;;;;;3.33;3.00;;;;;;;10.96;71.38;96630.16;5093825;28;20177;-67
2021/05/19 00:25:38;;;;;;;4.03;3.50;;;;;;;10.80;72.39;96623.16;5094215;28;20503;-67
2021/05/19 00:28:05;;;;;;;6.20;3.10;;;;;;;10.97;71.61;96625.72;5092620;28;20190;-68
2021/05/19 00:30:32;;;;;;;3.43;3.00;;;;;;;10.90;71.69;96623.78;5087421;28;20193;-68
2021/05/19 00:32:57;;;;;;;3.33;3.03;;;;;;;11.10;71.14;96626.00;5092421;28;20455;-69
2021/05/19 00:35:23;;;;;;;3.77;3.10;;;;;;;11.05;71.10;96630.94;5092328;28;20895;-67
2021/05/19 00:37:48;;;;;;;7.03;3.17;;;;;;;11.05;71.24;96636.19;5093781;28;20185;-67
2021/05/19 00:40:15;;;;;;;2.97;2.77;;;;;;;11.25;70.30;96623.50;5081188;28;20564;-68
2021/05/19 00:42:40;;;;;;;3.10;2.90;;;;;;;11.23;70.27;96628.09;5090768;28;20280;-68
2021/05/19 00:45:08;;;;;;;3.50;3.20;;;;;;;11.46;69.48;96624.72;5093443;28;20836;-69
2021/05/19 00:47:38;;;;;;;3.00;2.80;;;;;;;11.45;69.63;96625.69;5094145;28;20272;-68
2021/05/19 00:50:06;;;;;;;3.20;2.90;;;;;;;11.41;69.52;96627.00;5091694;28;20461;-68
2021/05/19 00:52:32;;;;;;;3.20;2.90;;;;;;;11.34;69.58;96630.34;5094814;28;20459;-68
2021/05/19 00:54:58;;;;;;;3.27;2.87;;;;;;;11.21;69.97;96636.13;5095005;28;20460;-68
2021/05/19 00:57:23;;;;;;;3.70;3.17;;;;;;;11.27;69.68;96623.31;5093486;28;20845;-68
2021/05/19 00:59:50;;;;;;;3.50;2.63;;;;;;;11.47;69.13;96616.66;5093345;28;20197;-67
2021/05/19 01:02:15;;;;;;;5.20;2.77;;;;;;;11.00;70.32;96618.34;5091789;28;20190;-67
2021/05/19 01:04:41;;;;;;;3.63;2.63;;;;;;;11.13;70.05;96625.66;5092875;28;20427;-67
2021/05/19 01:07:27;;;;;;;3.20;2.90;;;;;;;11.13;70.04;96619.63;5093014;28;20231;-68
2021/05/19 01:09:53;;;;;;;2.87;2.67;;;;;;;11.34;69.37;96621.66;5080279;28;20575;-67
2021/05/19 01:12:23;;;;;;;3.50;3.10;;;;;;;11.41;69.12;96617.34;5092827;28;20435;-67
2021/05/19 01:14:50;;;;;;;3.00;2.80;;;;;;;11.27;69.18;96618.06;5092004;28;20258;-67
2021/05/19 01:17:16;;;;;;;3.00;2.70;;;;;;;11.46;68.68;96616.84;5076712;28;20462;-68
2021/05/19 01:19:44;;;;;;;3.53;3.13;;;;;;;11.00;70.47;96620.97;5092961;28;20447;-67
2021/05/19 01:22:11;;;;;;;3.43;3.03;;;;;;;11.07;69.96;96621.13;5092904;28;20446;-68
2021/05/19 01:24:39;;;;;;;4.10;3.10;;;;;;;11.18;70.09;96612.88;5092957;28;20465;-67
2021/05/19 01:27:07;;;;;;;3.50;2.93;;;;;;;11.26;69.55;96611.19;5075891;28;20467;-68
2021/05/19 01:29:33;;;;;;;2.80;2.60;;;;;;;11.12;70.42;96610.91;5092671;28;20432;-67
2021/05/19 01:31:59;;;;;;;3.33;3.03;;;;;;;11.25;69.83;96614.81;5085570;28;20421;-67
2021/05/19 01:34:25;;;;;;;3.50;3.20;;;;;;;11.10;70.14;96614.72;5091405;28;20910;-68
2021/05/19 01:36:51;;;;;;;3.20;2.90;;;;;;;11.34;69.63;96605.94;5092499;28;20420;-68
2021/05/19 01:39:16;;;;;;;3.63;2.90;;;;;;;11.35;69.43;96611.00;5079722;28;20696;-67
2021/05/19 01:41:42;;;;;;;3.33;3.00;;;;;;;11.18;70.13;96604.16;5092512;28;20205;-67
2021/05/19 01:44:13;;;;;;;7.97;3.10;;;;;;;11.21;69.84;96611.72;5088466;28;20196;-67
2021/05/19 01:46:39;;;;;;;3.30;3.00;;;;;;;11.21;70.13;96603.84;5089321;28;20710;-66
2021/05/19 01:49:06;;;;;;;3.27;2.97;;;;;;;11.09;70.47;96605.19;5092446;28;20511;-66
2021/05/19 01:51:32;;;;;;;3.40;3.10;;;;;;;10.94;70.75;96612.97;5090197;28;20186;-67
2021/05/19 01:53:57;;;;;;;3.70;3.40;;;;;;;10.92;70.85;96613.13;5090439;28;20716;-70
2021/05/19 01:56:23;;;;;;;3.10;2.90;;;;;;;11.27;69.84;96610.22;5092089;28;20660;-67
2021/05/19 01:58:49;;;;;;;3.40;3.20;;;;;;;11.42;69.30;96605.88;5090826;28;20182;-67
2021/05/19 02:01:14;;;;;;;4.47;3.00;;;;;;;10.88;70.87;96607.41;5091557;28;20224;-67
2021/05/19 02:03:40;;;;;;;3.33;3.03;;;;;;;10.94;70.49;96607.72;5092027;28;20447;-68
2021/05/19 02:06:06;;;;;;;3.20;3.00;;;;;;;11.14;70.24;96619.44;5074361;28;20733;-67
2021/05/19 02:08:31;;;;;;;3.30;3.10;;;;;;;11.29;69.36;96610.84;5086359;28;20667;-67
2021/05/19 02:10:57;;;;;;;3.70;3.13;;;;;;;10.78;71.07;96612.03;5086441;28;20220;-67
2021/05/19 02:13:23;;;;;;;3.90;3.40;;;;;;;11.09;70.59;96605.19;5097750;28;20182;-68
2021/05/19 02:15:49;;;;;;;9.07;3.10;;;;;;;10.88;70.99;96612.66;5107931;28;20680;-68
2021/05/19 02:18:15;;;;;;;2.93;2.73;;;;;;;11.12;69.83;96608.28;5073851;28;20182;-68
2021/05/19 02:20:40;;;;;;;3.37;3.07;;;;;;;11.25;69.08;96614.81;5093625;28;20436;-68
2021/05/19 02:23:06;;;;;;;4.20;3.40;;;;;;;10.79;71.27;96610.22;5077312;28;20237;-67
2021/05/19 02:25:31;;;;;;;4.73;3.43;;;;;;;10.97;69.87;96618.69;5094548;28;20178;-68
2021/05/19 02:27:57;;;;;;;3.80;3.50;;;;;;;10.76;70.80;96621.84;5094142;28;20811;-67
2021/05/19 02:30:24;;;;;;;3.93;3.63;;;;;;;10.96;69.82;96618.88;5087088;28;20203;-67
2021/05/19 02:32:50;;;;;;;3.00;2.80;;;;;;;11.05;69.61;96625.72;5093174;28;20794;-68
2021/05/19 02:35:17;;;;;;;4.10;3.10;;;;;;;11.02;69.53;96624.25;5097727;28;20452;-68
2021/05/19 02:37:43;;;;;;;4.43;3.30;;;;;;;10.79;70.24;96625.94;5068657;28;20183;-67
2021/05/19 02:40:10;;;;;;;3.43;3.10;;;;;;;11.05;69.65;96620.47;5073044;28;20447;-67
2021/05/19 02:42:36;;;;;;;5.47;3.50;;;;;;;11.03;69.18;96627.69;5090747;28;20858;-66
2021/05/19 02:45:04;;;;;;;3.10;2.87;;;;;;;11.12;68.93;96626.66;5092632;28;20416;-66
2021/05/19 02:47:29;;;;;;;3.70;3.27;;;;;;;11.27;68.50;96618.91;5073768;28;20624;-66
2021/05/19 02:49:55;;;;;;;2.90;2.70;;;;;;;11.42;67.99;96623.41;5089735;28;20493;-67
2021/05/19 02:52:21;;;;;;;3.10;2.77;;;;;;;10.98;69.18;96619.50;5092033;28;20181;-68
2021/05/19 02:54:46;;;;;;;3.50;3.20;;;;;;;10.97;69.27;96623.09;5091192;28;20205;-67
2021/05/19 02:57:12;;;;;;;3.57;3.20;;;;;;;11.13;69.09;96630.91;5090254;28;20703;-67
2021/05/19 02:59:37;;;;;;;2.87;2.67;;;;;;;10.96;69.25;96626.72;5091428;28;20210;-67
2021/05/19 03:02:03;;;;;;;8.30;3.00;;;;;;;10.62;70.63;96627.78;5092008;28;20269;-68
2021/05/19 03:04:29;;;;;;;3.63;2.77;;;;;;;10.81;69.48;96632.66;5090059;28;20703;-67
2021/05/19 03:06:54;;;;;;;3.20;2.90;;;;;;;10.50;70.92;96632.56;5075463;28;20187;-67
2021/05/19 03:09:20;;;;;;;2.97;2.67;;;;;;;10.77;70.09;96635.78;5079015;28;20197;-67
2021/05/19 03:11:46;;;;;;;3.40;2.90;;;;;;;10.92;69.59;96631.47;5085061;28;20186;-68
2021/05/19 03:14:12;;;;;;;3.47;3.27;;;;;;;10.91;69.67;96635.06;5090027;28;20238;-67
2021/05/19 03:16:38;;;;;;;3.40;3.13;;;;;;;11.14;68.77;96637.00;5092357;28;20192;-67
2021/05/19 03:19:08;;;;;;;3.40;3.20;;;;;;;11.22;68.25;96648.25;5070496;28;20445;-67
2021/05/19 03:21:33;;;;;;;4.03;3.67;;;;;;;11.19;68.09;96640.75;5085876;28;20555;-67
2021/05/19 03:23:59;;;;;;;3.37;3.00;;;;;;;11.37;67.87;96639.66;5090472;28;20420;-67
2021/05/19 03:26:24;;;;;;;3.47;3.27;;;;;;;11.28;68.08;96641.50;5078501;28;20588;-66
2021/05/19 03:28:50;;;;;;;7.10;2.73;;;;;;;11.44;67.30;96640.63;5069065;28;20194;-68
2021/05/19 03:31:17;;;;;;;5.00;2.83;;;;;;;11.39;67.57;96642.94;5070659;28;20198;-66
2021/05/19 03:33:42;;;;;;;3.20;3.00;;;;;;;11.39;67.68;96637.69;5077934;28;20257;-66
2021/05/19 03:36:08;;;;;;;5.23;3.20;;;;;;;11.30;67.38;96654.47;5074641;28;20460;-67
2021/05/19 03:38:35;;;;;;;3.17;2.97;;;;;;;11.18;67.87;96648.75;5074600;28;20425;-68
2021/05/19 03:41:02;;;;;;;11.23;2.77;;;;;;;11.29;67.59;96655.44;5074860;28;20202;-67
2021/05/19 03:43:27;;;;;;;2.53;2.33;;;;;;;11.48;66.97;96651.59;5075049;28;20856;-69
2021/05/19 03:45:53;;;;;;;2.90;2.70;;;;;;;11.49;66.78;96659.28;5076144;28;20444;-66
2021/05/19 03:48:19;;;;;;;4.10;3.07;;;;;;;11.36;67.16;96664.25;5076164;28;20183;-69
2021/05/19 03:50:45;;;;;;;3.27;2.97;;;;;;;11.23;67.45;96662.19;5073779;28;20641;-69
2021/05/19 03:53:11;;;;;;;4.43;2.90;;;;;;;11.19;67.95;96666.97;5075599;28;20193;-68
2021/05/19 03:55:37;;;;;;;6.30;3.17;;;;;;;11.05;68.26;96673.72;5081312;28;20491;-68
2021/05/19 03:58:03;;;;;;;6.67;3.77;;;;;;;11.27;67.63;96678.41;5078186;28;20480;-68
2021/05/19 04:00:31;;;;;;;26.33;7.10;;;;;;;11.21;67.85;96672.84;5068238;28;20444;-68
2021/05/19 04:02:57;;;;;;;4.93;3.43;;;;;;;11.20;67.93;96679.09;5073859;28;20421;-68
2021/05/19 04:05:25;;;;;;;3.57;3.17;;;;;;;11.01;68.67;96675.06;5089123;28;20422;-68
2021/05/19 04:07:55;;;;;;;9.03;4.13;;;;;;;11.12;68.37;96673.84;5080375;28;20182;-69
2021/05/19 04:10:23;;;;;;;14.17;4.90;;;;;;;11.29;67.89;96673.81;5068115;28;20590;-68
2021/05/19 04:12:50;;;;;;;8.17;3.50;;;;;;;11.28;68.18;96677.41;5076238;28;20425;-70
2021/05/19 04:15:17;;;;;;;3.50;3.20;;;;;;;11.27;67.90;96678.41;5075855;28;20894;-67
2021/05/19 04:17:42;;;;;;;3.70;3.40;;;;;;;11.12;68.59;96676.47;5076097;28;20931;-69
2021/05/19 04:20:09;;;;;;;3.80;3.50;;;;;;;11.18;68.65;96686.31;5075353;28;20460;-69
2021/05/19 04:22:34;;;;;;;5.20;4.50;;;;;;;10.89;68.90;96674.56;5074817;28;20183;-68
2021/05/19 04:25:00;;;;;;;9.63;4.33;;;;;;;11.41;67.57;96682.94;5075914;28;20428;-68
2021/05/19 04:27:26;;;;;;;4.00;3.70;;;;;;;10.79;69.32;96684.44;5077326;28;20553;-68
2021/05/19 04:29:52;;;;;;;6.17;4.20;;;;;;;11.01;68.87;96685.53;5074888;28;20202;-69
2021/05/19 04:32:17;;;;;;;5.23;4.17;;;;;;;10.82;69.53;96681.47;5074224;28;20217;-67
2021/05/19 04:34:43;;;;;;;4.43;3.63;;;;;;;10.71;69.77;96693.13;5073964;28;20203;-68
2021/05/19 04:37:08;;;;;;;5.60;4.63;;;;;;;10.87;69.70;96694.09;5074285;28;20423;-68
2021/05/19 04:39:35;;;;;;;4.20;3.90;;;;;;;11.02;68.71;96689.81;5074506;28;20689;-67
2021/05/19 04:42:00;;;;;;;8.03;4.90;;;;;;;10.78;70.05;96688.03;5073815;28;20661;-69
2021/05/19 04:44:26;;;;;;;8.77;4.10;;;;;;;10.55;71.17;96699.19;5077133;28;20423;-67
2021/05/19 04:46:52;;;;;;;4.60;4.20;;;;;;;10.47;71.24;96699.19;5085532;28;20174;-68
2021/05/19 04:49:18;;;;;;;3.97;3.67;;;;;;;10.64;70.81;96702.63;5072988;28;20226;-67
2021/05/19 04:51:44;;;;;;;7.13;4.43;;;;;;;10.64;70.83;96702.63;5071731;28;20182;-68
2021/05/19 04:54:09;;;;;;;4.80;4.10;;;;;;;10.67;70.17;96706.72;5072796;28;20425;-69
2021/05/19 04:56:36;;;;;;;7.63;4.33;;;;;;;10.84;70.14;96707.53;5075139;28;20201;-69
2021/05/19 04:59:02;;;;;;;5.80;5.20;;;;;;;11.13;68.83;96706.97;5068772;28;20213;-70
2021/05/19 05:01:28;;;;;;;5.00;4.50;;;;;;;10.76;69.82;96705.72;5072958;28;20899;-67
2021/05/19 05:03:53;;;;;;;7.10;4.17;;;;;;;11.30;68.32;96707.72;5072847;28;20417;-67
2021/05/19 05:06:19;;;;;;;5.27;4.80;;;;;;;11.27;67.98;96712.50;5073265;28;20201;-68
2021/05/19 05:08:44;;;;;;;4.90;4.40;;;;;;;11.31;67.83;96719.06;5073102;28;20178;-67
2021/05/19 05:11:10;;;;;;;5.33;4.70;;;;;;;11.29;67.88;96721.84;5081349;28;20206;-69
2021/05/19 05:13:35;;;;;;;5.90;5.30;;;;;;;11.53;67.21;96715.69;5073164;28;20173;-68
2021/05/19 05:16:01;;;;;;;7.77;5.20;;;;;;;11.38;67.85;96714.75;5073018;28;20203;-68
2021/05/19 05:18:33;;;;;;;5.90;5.33;;;;;;;11.05;68.76;96720.91;5072770;28;20174;-67
2021/05/19 05:20:59;;;;;;;10.40;5.47;;;;;;;11.12;69.14;96721.06;5073149;28;20198;-68
2021/05/19 05:23:24;;;;;;;9.40;5.93;;;;;;;11.11;68.77;96719.44;5081049;28;20421;-69
2021/05/19 05:25:50;;;;;;;6.07;5.47;;;;;;;11.35;67.93;96730.84;5073396;28;20179;-68
2021/05/19 05:28:15;;;;;;;6.07;5.47;;;;;;;11.40;67.75;96723.28;5066189;28;20264;-68
2021/05/19 05:30:41;;;;;;;8.03;5.83;;;;;;;11.45;67.63;96734.09;5072560;28;20289;-68
2021/05/19 05:33:07;;;;;;;8.63;6.13;;;;;;;11.31;67.68;96734.81;5073770;28;20186;-68
2021/05/19 05:35:32;;;;;;;9.40;5.83;;;;;;;11.32;68.17;96736.44;5076991;28;20199;-69
2021/05/19 05:37:58;;;;;;;7.30;6.07;;;;;;;11.51;67.62;96733.41;5072923;28;20642;-68
2021/05/19 05:40:23;;;;;;;7.00;5.50;;;;;;;11.37;67.51;96737.56;5087207;28;20204;-69
2021/05/19 05:42:49;;;;;;;5.80;5.30;;;;;;;11.22;68.05;96732.19;5074842;28;20178;-68
2021/05/19 05:45:15;;;;;;;9.43;5.87;;;;;;;11.32;67.80;96736.44;5076873;28;20264;-68
2021/05/19 05:47:40;;;;;;;5.63;5.10;;;;;;;11.42;67.51;96737.06;5070686;28;20542;-69
2021/05/19 05:50:06;;;;;;;5.20;4.80;;;;;;;11.42;67.55;96742.31;5062725;28;20228;-68
2021/05/19 05:52:32;;;;;;;9.03;5.30;;;;;;;11.14;68.74;96736.66;5070590;28;20185;-67
2021/05/19 05:54:58;;;;;;;7.20;5.67;;;;;;;11.58;67.50;96745.88;5091947;28;20921;-69
2021/05/19 05:57:23;;;;;;;6.20;5.53;;;;;;;11.50;67.71;96742.28;5090143;28;20765;-68
2021/05/19 05:59:49;;;;;;;5.90;5.30;;;;;;;11.45;67.40;96744.59;5091911;28;20193;-68
2021/05/19 06:02:15;;;;;;;6.90;5.30;;;;;;;11.10;68.50;96746.63;5073954;28;20192;-69
2021/05/19 06:04:40;;;;;;;9.23;6.00;;;;;;;11.97;66.11;96751.09;5084775;28;20185;-67
2021/05/19 06:07:06;;;;;;;9.90;5.37;;;;;;;12.25;64.81;96748.03;5084850;28;20208;-68
2021/05/19 06:09:31;;;;;;;6.07;5.17;;;;;;;12.40;63.92;96749.91;5092031;28;20223;-68
2021/05/19 06:11:57;;;;;;;5.20;4.60;;;;;;;12.22;64.70;96756.25;5089026;28;20198;-67
2021/05/19 06:14:23;;;;;;;6.70;4.70;;;;;;;12.56;62.75;96751.59;5070220;28;20178;-69
2021/05/19 06:16:48;;;;;;;6.50;5.07;;;;;;;12.64;62.84;96751.53;5065009;28;20183;-68
2021/05/19 06:19:14;;;;;;;5.60;5.07;;;;;;;12.89;62.38;96753.94;5070925;28;20194;-68
2021/05/19 06:21:39;;;;;;;6.10;4.70;;;;;;;12.90;61.66;96756.41;5069737;28;20187;-69
2021/05/19 06:24:06;;;;;;;5.43;4.93;;;;;;;13.10;61.16;96750.63;5064353;28;20183;-68
2021/05/19 06:26:32;;;;;;;10.43;4.83;;;;;;;12.94;62.04;96751.59;5063298;28;20224;-67
2021/05/19 06:28:58;;;;;;;4.50;4.10;;;;;;;13.17;61.78;96751.53;5061821;28;20433;-69
2021/05/19 06:31:23;;;;;;;3.97;3.57;;;;;;;13.26;61.19;96754.91;5088566;28;20423;-68
2021/05/19 06:33:49;;;;;;;6.67;5.00;;;;;;;13.01;61.62;96762.25;5075254;28;20214;-70
2021/05/19 06:36:14;;;;;;;5.10;3.80;;;;;;;12.66;63.61;96770.56;5065833;28;20221;-69
2021/05/19 06:38:40;;;;;;;4.23;3.83;;;;;;;13.08;61.68;96757.06;5091397;28;20181;-70
2021/05/19 06:41:05;;;;;;;5.40;4.07;;;;;;;13.08;61.37;96751.81;5091115;28;20710;-69
2021/05/19 06:43:31;;;;;;;8.40;3.90;;;;;;;12.92;62.18;96753.59;5090152;28;20241;-70
2021/05/19 06:45:57;;;;;;;7.53;4.50;;;;;;;13.33;60.93;96755.84;5096304;28;20185;-70
2021/05/19 06:48:22;;;;;;;4.00;3.67;;;;;;;12.96;62.00;96754.88;5095540;28;20193;-69
2021/05/19 06:50:48;;;;;;;3.87;3.30;;;;;;;13.06;61.35;96755.44;5092754;28;20201;-68
2021/05/19 06:53:14;;;;;;;6.57;4.40;;;;;;;12.87;61.97;96755.94;5087042;28;20231;-68
2021/05/19 06:55:43;;;;;;;5.13;4.00;;;;;;;13.30;61.04;96765.88;5080824;28;20198;-69
2021/05/19 06:58:08;;;;;;;4.67;3.40;;;;;;;14.11;58.97;96771.22;5091772;28;20189;-69
2021/05/19 07:00:34;;;;;;;4.30;3.60;;;;;;;14.15;57.14;96763.75;5094513;28;20535;-69
2021/05/19 07:02:59;;;;;;;4.10;3.40;;;;;;;14.21;57.20;96760.41;5099115;28;20186;-69
2021/05/19 07:05:25;;;;;;;5.10;2.90;;;;;;;14.47;56.02;96760.84;5100493;28;20201;-69
2021/05/19 07:07:51;;;;;;;3.93;2.57;;;;;;;14.42;56.03;96759.63;5073020;28;20183;-69
2021/05/19 07:10:16;;;;;;;2.73;2.50;;;;;;;14.50;56.15;96752.56;5093786;28;20199;-71
2021/05/19 07:12:42;;;;;;;2.90;2.70;;;;;;;14.68;56.07;96768.78;5094644;28;20216;-68
2021/05/19 07:15:12;;;;;;;2.87;2.60;;;;;;;14.32;55.71;96766.19;5095903;28;20216;-68
2021/05/19 07:17:40;;;;;;;3.03;2.27;;;;;;;14.16;56.15;96765.41;5095861;28;20193;-68
2021/05/19 07:20:08;;;;;;;3.50;2.90;;;;;;;13.51;55.50;96775.72;5094358;28;20470;-70
2021/05/19 07:22:34;;;;;;;3.00;2.70;;;;;;;13.67;55.57;96767.66;5093030;28;20430;-68
2021/05/19 07:24:59;;;;;;;2.80;2.50;;;;;;;13.60;55.91;96772.03;5086198;28;20425;-70
2021/05/19 07:27:25;;;;;;;6.77;3.30;;;;;;;13.63;56.13;96776.09;5095066;28;20273;-69
2021/05/19 07:29:50;;;;;;;3.40;2.90;;;;;;;13.17;57.53;96777.84;5078274;28;20212;-70
2021/05/19 07:32:16;;;;;;;3.13;2.87;;;;;;;13.51;57.68;96768.66;5095216;28;20248;-69
2021/05/19 07:34:42;;;;;;;3.70;3.40;;;;;;;13.77;57.17;96771.81;5094981;28;20210;-67
2021/05/19 07:37:07;;;;;;;5.57;2.50;;;;;;;14.03;56.79;96773.97;5086442;28;20624;-69
2021/05/19 07:39:33;;;;;;;5.10;3.40;;;;;;;14.22;56.37;96780.47;5095212;28;20201;-70
2021/05/19 07:41:58;;;;;;;3.47;2.87;;;;;;;14.46;55.33;96772.41;5094130;28;20555;-69
2021/05/19 07:44:24;;;;;;;6.00;3.30;;;;;;;14.43;55.59;96776.22;5093123;28;20182;-68
2021/05/19 07:46:50;;;;;;;3.70;3.13;;;;;;;14.37;55.22;96776.97;5094681;28;20238;-68
2021/05/19 07:49:15;;;;;;;5.03;3.30;;;;;;;14.50;54.93;96782.38;5094518;28;20192;-67
2021/05/19 07:51:42;;;;;;;3.53;3.23;;;;;;;13.48;57.16;96770.84;5078218;28;20303;-68
2021/05/19 07:54:09;;;;;;;5.17;3.07;;;;;;;13.86;56.83;96783.88;5094348;28;20268;-68
2021/05/19 07:56:50;;;;;;;3.40;3.00;;;;;;;13.86;57.14;96781.25;5093651;28;20451;-68
2021/05/19 07:59:17;;;;;;;7.80;3.43;;;;;;;13.44;57.63;96782.72;5093458;28;20426;-68
2021/05/19 08:02:04;;;;;;;3.50;3.10;;;;;;;13.98;56.40;96782.44;5094009;28;20564;-68
2021/05/19 08:04:33;;;;;;;3.63;2.93;;;;;;;14.34;55.90;96782.63;5094079;28;20428;-67
2021/05/19 08:07:00;;;;;;;6.37;3.00;;;;;;;14.51;54.67;96778.75;5087039;28;20799;-68
2021/05/19 08:09:25;;;;;;;3.60;2.80;;;;;;;14.12;55.58;96783.41;5085490;28;20437;-69
2021/05/19 08:11:51;;;;;;;6.07;3.10;;;;;;;13.66;57.05;96786.28;5085201;28;20742;-70
2021/05/19 08:14:17;;;;;;;30.30;9.23;;;;;;;13.39;56.38;96780.63;5094086;28;20710;-67
2021/05/19 08:16:42;;;;;;;6.07;3.93;;;;;;;13.87;55.58;96790.78;5080405;28;20206;-69
2021/05/19 08:19:08;;;;;;;7.07;3.63;;;;;;;13.88;55.24;96791.63;5092841;28;20293;-71
2021/05/19 08:21:35;;;;;;;9.47;3.53;;;;;;;13.96;54.73;96783.59;5106186;28;20174;-70
2021/05/19 08:24:00;;;;;;;3.73;3.33;;;;;;;14.15;55.17;96795.38;5108273;28;20360;-70
2021/05/19 08:26:26;;;;;;;8.50;2.77;;;;;;;13.89;55.47;96780.88;5100683;28;20451;-69
2021/05/19 08:28:51;;;;;;;3.40;3.00;;;;;;;14.16;55.06;96780.41;5095403;28;20193;-68
2021/05/19 08:31:19;;;;;;;4.57;3.27;;;;;;;14.01;55.69;96783.06;5094835;28;20197;-68
2021/05/19 08:33:45;;;;;;;5.70;3.10;;;;;;;14.22;55.14;96775.22;5094093;28;20185;-69
2021/05/19 08:36:11;;;;;;;7.47;3.50;;;;;;;14.19;54.76;96780.00;5069838;28;20453;-68
2021/05/19 08:38:38;;;;;;;11.97;3.60;;;;;;;14.68;54.41;96781.16;5093681;28;20447;-71
2021/05/19 08:41:05;;;;;;;11.90;4.93;;;;;;;14.94;53.49;96771.84;5092701;28;20435;-67
2021/05/19 08:43:31;;;;;;;15.83;3.67;;;;;;;14.84;52.90;96772.16;5094509;28;20782;-69
2021/05/19 08:45:58;;;;;;;4.60;3.03;;;;;;;14.98;51.97;96766.00;5092221;28;20860;-69
2021/05/19 08:48:24;;;;;;;3.37;2.53;;;;;;;15.10;51.48;96765.47;5079229;28;20420;-69
2021/05/19 08:50:50;;;;;;;3.53;2.60;;;;;;;15.24;51.60;96766.41;5092845;28;20451;-69
2021/05/19 08:53:16;;;;;;;3.90;2.37;;;;;;;15.61;50.96;96762.56;5093777;28;20412;-69
2021/05/19 08:55:42;;;;;;;5.97;2.23;;;;;;;15.87;50.56;96763.72;5076819;28;20464;-70
2021/05/19 08:58:07;;;;;;;4.90;2.97;;;;;;;15.51;50.07;96762.09;5076742;28;20451;-68
2021/05/19 09:00:34;;;;;;;4.20;3.00;;;;;;;15.14;51.23;96764.91;5094173;28;20600;-67
2021/05/19 09:03:10;;;;;;;3.37;2.90;;;;;;;14.70;52.78;96760.69;5094166;28;20297;-69
2021/05/19 09:05:38;;;;;;;4.07;2.20;;;;;;;14.93;51.93;96754.38;5091419;28;20458;-69
2021/05/19 09:08:18;;;;;;;3.70;2.57;;;;;;;15.55;50.66;96754.59;5071557;28;20821;-69
2021/05/19 09:10:56;;;;;;;3.73;2.60;;;;;;;15.47;50.69;96751.13;5093590;28;20444;-67
2021/05/19 09:13:51;;;;;;;6.13;2.40;;;;;;;15.33;50.49;96747.56;5093195;28;20602;-69
2021/05/19 09:16:29;;;;;;;2.97;2.30;;;;;;;15.42;49.47;96752.72;5091385;28;20904;-67
2021/05/19 09:18:58;;;;;;;3.10;2.17;;;;;;;15.83;48.02;96759.81;5072502;28;20429;-69
2021/05/19 09:21:39;;;;;;;2.47;2.20;;;;;;;16.10;47.10;96752.84;5090568;28;20559;-68
2021/05/19 09:24:14;;;;;;;3.93;1.70;;;;;;;15.43;46.67;96744.59;5091244;28;20463;-68
2021/05/19 09:26:56;;;;;;;2.73;1.30;;;;;;;16.00;43.50;96741.84;5088360;28;20424;-68
2021/05/19 09:29:32;;;;;;;1.97;1.30;;;;;;;16.23;42.27;96738.84;5076559;28;20458;-72
2021/05/19 09:32:00;;;;;;;2.20;1.40;;;;;;;16.16;42.71;96755.69;5089797;28;20415;-69
2021/05/19 09:34:30;;;;;;;6.50;1.87;;;;;;;16.80;41.67;96749.09;5088331;28;20488;-69
2021/05/19 09:37:25;;;;;;;3.37;1.70;;;;;;;16.84;42.46;96736.28;5081228;28;20504;-69
2021/05/19 09:39:57;;;;;;;2.87;1.83;;;;;;;16.23;43.50;96741.47;5064500;28;20479;-68
2021/05/19 09:42:40;;;;;;;2.90;1.83;;;;;;;16.16;44.05;96743.31;5074396;28;20512;-69
2021/05/19 09:45:21;;;;;;;3.00;1.50;;;;;;;16.56;43.30;96743.41;5089533;28;20424;-68
2021/05/19 09:47:48;;;;;;;2.77;1.57;;;;;;;17.21;41.56;96736.69;5073008;28;20431;-68
2021/05/19 09:50:17;;;;;;;2.00;1.23;;;;;;;16.93;40.45;96726.31;5069975;28;20446;-68
2021/05/19 09:53:02;;;;;;;1.23;1.00;;;;;;;15.84;39.96;96750.06;5090121;28;20782;-68
2021/05/19 09:55:28;;;;;;;1.17;1.00;;;;;;;16.73;38.87;96742.97;5090281;28;20456;-68
2021/05/19 09:57:54;;;;;;;4.80;1.30;;;;;;;16.85;36.13;96748.50;5092170;28;20439;-69
2021/05/19 10:00:22;;;;;;;3.30;1.20;;;;;;;16.13;36.88;96755.06;5091189;28;20205;-68
2021/05/19 10:02:48;;;;;;;2.30;0.90;;;;;;;16.45;36.54;96746.59;5076042;28;20585;-68
2021/05/19 10:05:25;;;;;;;1.10;0.80;;;;;;;15.90;36.66;96744.84;5090524;28;20507;-69
2021/05/19 10:07:53;;;;;;;2.07;1.00;;;;;;;16.46;37.08;96742.94;5084636;28;20291;-69
2021/05/19 10:10:19;;;;;;;4.90;1.10;;;;;;;16.87;37.38;96735.88;5090359;28;20530;-69
2021/05/19 10:12:46;;;;;;;1.10;1.00;;;;;;;17.16;36.21;96732.00;5091995;28;20986;-67
2021/05/19 10:15:13;;;;;;;1.53;1.30;;;;;;;16.85;37.15;96735.25;5090245;28;20202;-68
2021/05/19 10:17:42;;;;;;;2.17;1.20;;;;;;;16.46;37.64;96742.16;5091024;28;20481;-67
2021/05/19 10:20:12;;;;;;;2.43;1.10;;;;;;;16.54;36.90;96737.47;5090342;28;20996;-68
2021/05/19 10:22:46;;;;;;;2.57;1.20;;;;;;;16.66;35.56;96740.31;5090924;28;20784;-72
2021/05/19 10:25:34;;;;;;;8.00;1.10;;;;;;;17.17;36.17;96732.81;5092585;28;20480;-69
2021/05/19 10:28:02;;;;;;;1.57;0.70;;;;;;;17.73;34.99;96725.34;5091489;28;20451;-67
2021/05/19 10:30:48;;;;;;;2.23;1.13;;;;;;;17.05;32.36;96719.41;5091008;28;20440;-69
2021/05/19 10:33:29;;;;;;;4.60;0.90;;;;;;;16.52;32.84;96725.47;5090529;28;20463;-68
2021/05/19 10:35:59;;;;;;;5.80;1.40;;;;;;;16.88;33.83;96718.97;5084417;28;20909;-69
2021/05/19 10:38:33;;;;;;;9.10;1.20;;;;;;;16.47;33.31;96733.19;5092858;28;20419;-69
2021/05/19 10:41:00;;;;;;;5.13;1.10;;;;;;;17.42;31.75;96708.31;5090580;28;20443;-69
2021/05/19 10:43:44;;;;;;;3.07;1.13;;;;;;;17.17;30.63;96706.34;5091480;28;20415;-68
2021/05/19 10:46:12;;;;;;;1.50;1.00;;;;;;;17.01;31.60;96707.59;5091531;28;20416;-69
2021/05/19 10:48:38;;;;;;;3.07;0.80;;;;;;;17.92;30.86;96697.94;5090588;28;20427;-69
2021/05/19 10:51:40;;;;;;;1.33;1.13;;;;;;;17.18;32.47;96702.66;5089119;28;20471;-68
2021/05/19 11:03:04;;;;;;;1.50;0.90;;;;;;;17.87;33.57;96692.47;5083974;28;20550;-68
2021/05/19 11:05:37;;;;;;;1.90;1.47;;;;;;;17.86;34.24;96690.84;5090132;28;20426;-69
2021/05/19 11:08:11;;;;;;;1.63;1.00;;;;;;;17.04;33.55;96686.81;5088008;28;20432;-68
2021/05/19 11:10:48;;;;;;;2.37;1.00;;;;;;;17.44;30.46;96683.28;5102178;28;20938;-69
2021/05/19 11:13:18;;;;;;;1.90;0.87;;;;;;;17.53;28.99;96686.47;5084939;28;20427;-69
2021/05/19 11:21:17;;;;;;;1.90;0.90;;;;;;;17.20;33.30;96693.50;5073561;28;20458;-70
2021/05/19 11:24:10;;;;;;;3.10;1.27;;;;;;;17.59;32.28;96683.00;5087790;28;20423;-69
2021/05/19 11:26:40;;;;;;;3.37;1.17;;;;;;;17.32;32.21;96683.09;5103131;28;20524;-69
2021/05/19 11:29:07;;;;;;;1.70;0.87;;;;;;;17.42;32.04;96676.53;5102857;28;20424;-70
2021/05/19 11:31:38;;;;;;;4.80;1.10;;;;;;;17.87;31.39;96681.88;5092041;28;20427;-69
2021/05/19 11:34:05;;;;;;;2.50;0.80;;;;;;;18.10;31.75;96677.91;5073827;28;20447;-70
2021/05/19 11:36:34;;;;;;;4.50;1.00;;;;;;;17.66;31.78;96670.53;5073930;28;20468;-68
2021/05/19 11:39:03;;;;;;;4.43;1.10;;;;;;;17.60;29.43;96671.38;5085728;28;20435;-69
2021/05/19 11:41:29;;;;;;;1.73;1.00;;;;;;;18.10;28.76;96667.28;5091533;28;20980;-68
2021/05/19 11:43:54;;;;;;;1.37;0.90;;;;;;;17.99;31.28;96665.31;5090279;28;20487;-69
2021/05/19 11:46:20;;;;;;;3.63;1.00;;;;;;;17.77;32.45;96666.41;5085014;28;20185;-69
2021/05/19 11:48:50;;;;;;;3.23;1.10;;;;;;;17.33;33.20;96674.13;5081294;28;20182;-69
2021/05/19 11:51:21;;;;;;;1.20;0.90;;;;;;;17.50;33.24;96671.03;5089976;28;20204;-67